createdAt,value
2022-08-10T00:01:55.615Z,4.00
2022-08-10T00:06:54.341Z,3.85
2022-08-10T00:11:56.500Z,4.40
2022-08-10T00:17:17.827Z,4.05
2022-08-10T00:22:17.043Z,4.28
2022-08-10T00:27:47.027Z,3.83
2022-08-10T00:32:35.979Z,3.95
2022-08-10T00:37:35.918Z,4.65
2022-08-10T00:42:35.198Z,3.78
2022-08-10T00:47:53.217Z,4.57
2022-08-10T00:53:02.803Z,4.45
2022-08-10T00:58:03.500Z,4.20
2022-08-10T01:03:02.555Z,3.30
2022-08-10T01:08:26.231Z,3.53
2022-08-10T01:13:31.694Z,4.40
2022-08-10T01:18:48.620Z,3.90
2022-08-10T01:24:04.831Z,4.40
2022-08-10T01:29:59.466Z,6.75
2022-08-10T01:35:47.801Z,6.47
2022-08-10T01:40:52.498Z,7.03
2022-08-10T01:45:59.598Z,8.15
2022-08-10T01:51:09.418Z,6.25
2022-08-10T01:56:33.308Z,7.90
2022-08-10T02:01:39.378Z,5.65
2022-08-10T02:07:08.512Z,5.00
2022-08-10T02:12:23.392Z,6.72
2022-08-10T02:19:01.431Z,7.32
2022-08-10T02:24:13.426Z,5.43
2022-08-10T02:29:13.809Z,4.38
2022-08-10T02:34:20.037Z,4.15
2022-08-10T02:39:28.622Z,3.78
2022-08-10T02:45:23.391Z,3.28
2022-08-10T02:49:57.225Z,3.22
2022-08-10T02:55:05.926Z,3.20
2022-08-10T03:00:16.346Z,2.88
2022-08-10T03:05:21.662Z,2.67
2022-08-10T03:10:23.536Z,3.00
2022-08-10T03:15:22.722Z,2.67
2022-08-10T03:20:38.468Z,5.65
2022-08-10T03:25:53.018Z,2.63
2022-08-10T03:30:52.139Z,2.33
2022-08-10T03:36:43.673Z,2.25
2022-08-10T03:41:11.623Z,3.85
2022-08-10T03:46:15.200Z,2.50
2022-08-10T03:51:14.287Z,3.05
2022-08-10T03:56:29.976Z,2.40
2022-08-10T04:02:43.488Z,2.00
2022-08-10T04:06:47.154Z,2.47
2022-08-10T04:11:49.843Z,2.53
2022-08-10T04:16:47.080Z,2.30
2022-08-10T04:22:10.775Z,2.45
2022-08-10T04:27:09.676Z,2.53
2022-08-10T04:32:17.143Z,2.15
2022-08-10T04:37:18.085Z,2.83
2022-08-10T04:42:19.123Z,3.00
2022-08-10T04:47:17.002Z,2.45
2022-08-10T04:52:34.482Z,2.90
2022-08-10T04:57:32.404Z,2.55
2022-08-10T05:02:32.147Z,3.15
2022-08-10T05:07:31.474Z,3.10
2022-08-10T05:12:37.361Z,2.70
2022-08-10T05:17:35.408Z,3.92
2022-08-10T05:22:33.497Z,4.47
2022-08-10T05:27:31.898Z,3.70
2022-08-10T05:32:56.483Z,3.95
2022-08-10T05:38:10.859Z,4.85
2022-08-10T05:49:06.882Z,3.95
2022-08-10T05:54:14.401Z,4.85
2022-08-10T05:59:14.177Z,5.40
2022-08-10T06:04:20.534Z,5.65
2022-08-10T06:09:20.568Z,5.32
2022-08-10T06:14:36.966Z,4.13
2022-08-10T06:19:36.820Z,6.07
2022-08-10T06:24:43.163Z,6.05
2022-08-10T06:30:31.249Z,4.45
2022-08-10T06:35:52.445Z,3.85
2022-08-10T06:40:54.844Z,3.40
2022-08-10T06:46:06.856Z,3.42
2022-08-10T06:51:11.205Z,5.07
2022-08-10T06:56:12.403Z,4.80
2022-08-10T07:01:14.838Z,4.60
2022-08-10T07:06:19.468Z,4.50
2022-08-10T07:11:19.687Z,4.68
2022-08-10T07:16:19.404Z,4.40
2022-08-10T07:21:18.968Z,3.92
2022-08-10T07:26:20.232Z,3.70
2022-08-10T07:31:54.985Z,4.18
2022-08-10T07:36:42.883Z,4.00
2022-08-10T07:41:42.224Z,4.43
2022-08-10T07:46:46.950Z,5.13
2022-08-10T07:51:44.621Z,4.78
2022-08-10T07:56:49.301Z,4.22
2022-08-10T08:01:53.002Z,4.60
2022-08-10T08:06:54.782Z,4.30
2022-08-10T08:11:54.429Z,4.15
2022-08-10T08:16:53.928Z,5.22
2022-08-10T08:24:05.239Z,4.00
2022-08-10T08:27:14.650Z,3.33
2022-08-10T08:32:15.857Z,3.63
2022-08-10T08:38:31.224Z,5.72
2022-08-10T08:48:24.407Z,3.40
2022-08-10T08:54:02.458Z,3.88
2022-08-10T08:59:08.559Z,3.20
2022-08-10T09:04:22.055Z,3.22
2022-08-10T09:09:47.286Z,2.92
2022-08-10T09:14:52.435Z,3.10
2022-08-10T09:19:54.673Z,2.83
2022-08-10T09:24:58.898Z,3.47
2022-08-10T09:30:02.009Z,2.58
2022-08-10T09:36:23.354Z,4.07
2022-08-10T09:40:59.596Z,3.13
2022-08-10T09:46:02.531Z,2.72
2022-08-10T09:56:32.127Z,3.67
2022-08-10T10:01:58.000Z,2.63
2022-08-10T10:06:56.413Z,3.13
2022-08-10T10:12:12.162Z,3.08
2022-08-10T10:17:17.545Z,2.35
2022-08-10T10:22:36.728Z,2.63
2022-08-10T10:27:49.117Z,2.60
2022-08-10T10:33:01.420Z,2.30
2022-08-10T10:38:03.519Z,2.10
2022-08-10T10:43:46.278Z,2.40
2022-08-10T10:48:52.606Z,3.10
2022-08-10T10:54:09.937Z,2.90
2022-08-10T10:59:54.525Z,2.38
2022-08-10T11:04:51.090Z,2.42
2022-08-10T11:10:03.482Z,2.28
2022-08-10T11:15:09.199Z,2.15
2022-08-10T11:20:14.964Z,2.65
2022-08-10T11:25:28.239Z,2.33
2022-08-10T11:30:31.476Z,2.10
2022-08-10T11:35:36.290Z,2.37
2022-08-10T11:40:42.093Z,2.50
2022-08-10T11:45:52.224Z,2.50
2022-08-10T11:51:04.739Z,2.80
2022-08-10T12:02:23.171Z,2.97
2022-08-10T12:10:02.787Z,3.20
2022-08-10T12:13:25.895Z,2.85
2022-08-10T12:18:30.174Z,3.50
2022-08-10T12:23:39.124Z,3.15
2022-08-10T12:28:49.923Z,2.83
2022-08-10T12:34:02.331Z,2.67
2022-08-10T12:39:06.525Z,3.40
2022-08-10T12:44:10.030Z,3.13
2022-08-10T12:49:15.765Z,2.83
2022-08-10T12:54:17.140Z,3.30
2022-08-10T12:59:34.288Z,3.67
2022-08-10T13:04:43.483Z,2.85
2022-08-10T13:09:58.717Z,3.30
2022-08-10T13:15:00.469Z,2.88
2022-08-10T13:20:12.949Z,3.30
2022-08-10T13:25:13.664Z,2.63
2022-08-10T13:30:14.204Z,3.20
2022-08-10T13:35:22.728Z,3.30
2022-08-10T13:40:21.219Z,2.80
2022-08-10T13:45:21.840Z,3.38
2022-08-10T13:50:33.536Z,2.88
2022-08-10T13:55:48.733Z,3.22
2022-08-10T14:01:11.076Z,3.13
2022-08-10T14:06:12.188Z,2.58
2022-08-10T14:11:14.709Z,2.75
2022-08-10T14:16:20.887Z,3.50
2022-08-10T14:21:25.309Z,2.95
2022-08-10T14:26:35.139Z,3.35
2022-08-10T14:32:01.625Z,3.00
2022-08-10T14:37:02.934Z,2.88
2022-08-10T14:42:13.667Z,3.17
2022-08-10T14:47:53.436Z,3.53
2022-08-10T14:52:52.919Z,3.22
2022-08-10T14:58:21.279Z,3.22
2022-08-10T15:04:01.069Z,2.92
2022-08-10T15:09:19.760Z,2.63
2022-08-10T15:14:41.567Z,2.90
2022-08-10T15:20:03.420Z,3.38
2022-08-10T15:25:18.099Z,3.65
2022-08-10T15:30:18.379Z,2.50
2022-08-10T15:35:56.297Z,4.25
2022-08-10T15:41:11.065Z,4.25
2022-08-10T15:46:18.880Z,4.78
2022-08-10T15:51:33.792Z,4.85
2022-08-10T15:56:51.423Z,3.92
2022-08-10T16:02:13.899Z,3.75
2022-08-10T16:07:46.108Z,3.72
2022-08-10T16:12:59.086Z,3.75
2022-08-10T16:18:03.029Z,6.72
2022-08-10T16:23:07.502Z,3.00
2022-08-10T16:28:11.201Z,5.25
2022-08-10T16:33:53.050Z,6.25
2022-08-10T16:38:54.240Z,3.45
2022-08-10T16:43:52.761Z,2.60
2022-08-10T16:48:59.856Z,2.72
2022-08-10T16:54:01.682Z,4.43
2022-08-10T16:59:01.162Z,4.30
2022-08-10T17:04:09.166Z,2.47
2022-08-10T17:09:16.003Z,3.85
2022-08-10T17:14:24.533Z,5.53
2022-08-10T17:19:25.762Z,3.10
2022-08-10T17:24:30.921Z,2.38
2022-08-10T17:29:57.850Z,2.40
2022-08-10T17:34:57.350Z,2.90
2022-08-10T17:40:01.236Z,3.60
2022-08-10T17:45:02.048Z,3.23
2022-08-10T17:50:07.318Z,2.60
2022-08-10T17:55:07.986Z,2.33
2022-08-10T18:00:13.749Z,5.15
2022-08-10T18:05:15.649Z,3.97
2022-08-10T18:10:17.178Z,4.78
2022-08-10T18:15:21.710Z,1.70
2022-08-10T18:20:28.079Z,1.63
2022-08-10T18:25:31.717Z,1.80
2022-08-10T18:30:52.793Z,1.92
2022-08-10T18:35:52.200Z,1.23
2022-08-10T18:41:00.634Z,1.50
2022-08-10T18:46:18.765Z,3.28
2022-08-10T18:51:24.938Z,2.47
2022-08-10T18:56:50.472Z,2.38
2022-08-10T19:02:07.917Z,1.67
2022-08-10T19:07:26.035Z,2.50
2022-08-10T19:12:48.524Z,3.33
2022-08-10T19:18:05.509Z,5.05
2022-08-10T19:23:37.675Z,3.58
2022-08-10T19:28:55.074Z,5.75
2022-08-10T19:34:11.990Z,2.40
2022-08-10T19:39:31.177Z,1.63
2022-08-10T19:44:51.070Z,2.03
2022-08-10T19:50:00.185Z,1.63
2022-08-10T19:55:15.637Z,1.52
2022-08-10T20:00:22.928Z,1.67
2022-08-10T20:05:30.986Z,1.45
2022-08-10T20:10:38.569Z,1.42
2022-08-10T20:22:29.272Z,2.72
2022-08-10T20:28:06.777Z,1.38
2022-08-10T20:33:09.354Z,1.95
2022-08-10T20:38:11.223Z,2.20
2022-08-10T20:43:26.619Z,1.85
2022-08-10T20:55:24.255Z,2.22
2022-08-10T21:00:30.946Z,1.95
2022-08-10T21:05:44.739Z,1.60
2022-08-10T21:11:09.847Z,2.15
2022-08-10T21:16:28.493Z,1.63
2022-08-10T21:21:56.894Z,1.55
2022-08-10T21:27:08.294Z,1.60
2022-08-10T21:32:23.280Z,1.52
2022-08-10T21:37:26.305Z,1.50
2022-08-10T21:43:10.989Z,1.48
2022-08-10T21:48:34.464Z,1.33
2022-08-10T21:53:57.038Z,1.42
2022-08-10T21:59:34.765Z,1.70
2022-08-10T22:04:52.044Z,1.55
2022-08-10T22:10:11.097Z,1.30
2022-08-10T22:21:26.979Z,1.50
2022-08-10T22:27:03.397Z,1.48
2022-08-10T22:32:30.565Z,1.27
2022-08-10T22:38:09.742Z,1.50
2022-08-10T22:43:37.324Z,1.40
2022-08-10T22:49:03.157Z,1.60
2022-08-10T22:54:30.425Z,1.55
2022-08-10T22:59:34.022Z,1.40
2022-08-10T23:04:44.807Z,1.40
2022-08-10T23:09:48.628Z,1.58
2022-08-10T23:15:00.186Z,1.80
2022-08-10T23:20:08.961Z,1.27
2022-08-10T23:25:12.524Z,1.60
2022-08-10T23:30:39.077Z,1.45
2022-08-10T23:36:27.257Z,1.40
2022-08-10T23:41:12.795Z,1.60
2022-08-10T23:46:19.247Z,1.40
2022-08-10T23:51:19.032Z,1.58
2022-08-10T23:56:21.648Z,1.40
